QTR3E LIRF-OTHH
Flight info
| Callsign | QTR3E |
|---|---|
| Flight time | N/A |
| Altitude | 39000 |
| Route | SIPRO DCT TEA DCT LUNAR DCT UPLAD DCT ALIXI DCT DINOB DCT KFN UM872 ETILI/N0483F410 UM872 PLH UL604 SALUN N705 MMA P751 DASUM Y234 FYM M872 BDB Y214 RAPMA/N0521F290 Y214 ASPUS Y432 LADBO T142 LAEEB |
| Aircraft | A359/H-SDE2E3GHIJ3J4J5LM1ORWXY/LB1D1 |
Departure
| Time | 2026-05-06 15:42 |
|---|---|
| Airport | Rome–Fiumicino Leonardo da Vinci International Airport (LIRF) |
Arrival
| Time | N/A |
|---|---|
| Airport | Hamad International Airport (OTHH) |
| Time | Latitude | Longitude | Altitude | Speed | Heading |
|---|---|---|---|---|---|
| 2026-05-06 15:23 | 41.79654 | 12.24307 | 20 ft | 0 kts | 250° |
| 2026-05-06 15:32 | 41.79656 | 12.24314 | 20 ft | 4 kts | 250° |
| 2026-05-06 15:32 | 41.79665 | 12.24348 | 21 ft | 4 kts | 250° |
| 2026-05-06 15:32 | 41.79671 | 12.24382 | 22 ft | 4 kts | 276° |
| 2026-05-06 15:32 | 41.79663 | 12.24413 | 23 ft | 4 kts | 316° |
| 2026-05-06 15:33 | 41.79648 | 12.24427 | 23 ft | 1 kts | 340° |
| 2026-05-06 15:36 | 41.79666 | 12.24418 | 24 ft | 8 kts | 339° |
| 2026-05-06 15:36 | 41.79752 | 12.24376 | 23 ft | 16 kts | 340° |
| 2026-05-06 15:36 | 41.79851 | 12.24291 | 21 ft | 18 kts | 327° |
| 2026-05-06 15:36 | 41.79982 | 12.24225 | 21 ft | 20 kts | 350° |
| 2026-05-06 15:37 | 41.80063 | 12.24351 | 22 ft | 20 kts | 69° |
| 2026-05-06 15:37 | 41.80115 | 12.24536 | 23 ft | 22 kts | 70° |
| 2026-05-06 15:37 | 41.80169 | 12.24734 | 20 ft | 24 kts | 70° |
| 2026-05-06 15:37 | 41.80206 | 12.24950 | 22 ft | 24 kts | 96° |
| 2026-05-06 15:38 | 41.80231 | 12.25164 | 21 ft | 24 kts | 69° |
| 2026-05-06 15:38 | 41.80290 | 12.25375 | 25 ft | 25 kts | 70° |
| 2026-05-06 15:38 | 41.80349 | 12.25592 | 23 ft | 25 kts | 70° |
| 2026-05-06 15:38 | 41.80412 | 12.25819 | 24 ft | 26 kts | 69° |
| 2026-05-06 15:39 | 41.80478 | 12.26054 | 24 ft | 27 kts | 69° |
| 2026-05-06 15:39 | 41.80544 | 12.26294 | 26 ft | 28 kts | 69° |
| 2026-05-06 15:39 | 41.80612 | 12.26542 | 24 ft | 29 kts | 70° |
| 2026-05-06 15:39 | 41.80681 | 12.26793 | 23 ft | 30 kts | 70° |
| 2026-05-06 15:40 | 41.80750 | 12.27047 | 23 ft | 25 kts | 70° |
| 2026-05-06 15:40 | 41.80841 | 12.27127 | 22 ft | 16 kts | 342° |
| 2026-05-06 15:40 | 41.80892 | 12.27103 | 23 ft | 0 kts | 340° |
| 2026-05-06 15:41 | 41.80932 | 12.27083 | 20 ft | 15 kts | 340° |
| 2026-05-06 15:41 | 41.80978 | 12.27023 | 23 ft | 8 kts | 272° |
| 2026-05-06 15:41 | 41.80945 | 12.26885 | 21 ft | 34 kts | 250° |
| 2026-05-06 15:42 | 41.80777 | 12.26271 | 27 ft | 103 kts | 250° |
| 2026-05-06 15:42 | 41.80451 | 12.25124 | 26 ft | 160 kts | 245° |
| 2026-05-06 15:42 | 41.80034 | 12.23714 | 685 ft | 157 kts | 245° |
| 2026-05-06 15:42 | 41.79661 | 12.22315 | 1306 ft | 165 kts | 243° |
| 2026-05-06 15:43 | 41.79091 | 12.20873 | 1646 ft | 183 kts | 226° |
| 2026-05-06 15:43 | 41.78178 | 12.19711 | 2276 ft | 184 kts | 218° |
| 2026-05-06 15:43 | 41.77162 | 12.18584 | 2850 ft | 192 kts | 217° |
| 2026-05-06 15:43 | 41.76117 | 12.17484 | 3547 ft | 192 kts | 212° |
| 2026-05-06 15:44 | 41.74871 | 12.16818 | 4162 ft | 198 kts | 188° |
| 2026-05-06 15:44 | 41.73417 | 12.16747 | 4466 ft | 222 kts | 179° |
| 2026-05-06 15:44 | 41.71814 | 12.16851 | 4807 ft | 242 kts | 178° |
| 2026-05-06 15:44 | 41.70099 | 12.16968 | 5463 ft | 250 kts | 179° |
| 2026-05-06 15:45 | 41.68353 | 12.17329 | 6206 ft | 258 kts | 165° |
| 2026-05-06 15:45 | 41.66736 | 12.18437 | 6939 ft | 267 kts | 143° |
| 2026-05-06 15:45 | 41.65594 | 12.20421 | 7727 ft | 278 kts | 116° |
| 2026-05-06 15:45 | 41.65313 | 12.23015 | 8523 ft | 290 kts | 87° |
| 2026-05-06 15:46 | 41.65832 | 12.25655 | 9437 ft | 297 kts | 74° |
| 2026-05-06 15:46 | 41.66432 | 12.28284 | 10268 ft | 303 kts | 77° |
| 2026-05-06 15:46 | 41.66926 | 12.31103 | 10719 ft | 322 kts | 82° |
| 2026-05-06 15:46 | 41.67236 | 12.34169 | 11045 ft | 342 kts | 88° |
| 2026-05-06 15:47 | 41.67317 | 12.37450 | 11408 ft | 360 kts | 94° |
| 2026-05-06 15:47 | 41.67204 | 12.40818 | 11898 ft | 373 kts | 93° |
| 2026-05-06 15:47 | 41.67334 | 12.44329 | 12606 ft | 380 kts | 86° |
| 2026-05-06 15:47 | 41.67553 | 12.47878 | 13350 ft | 386 kts | 89° |
| 2026-05-06 15:48 | 41.67445 | 12.51484 | 14155 ft | 390 kts | 98° |
| 2026-05-06 15:48 | 41.67165 | 12.55118 | 14976 ft | 394 kts | 98° |
| 2026-05-06 15:48 | 41.66925 | 12.58811 | 15703 ft | 400 kts | 97° |
| 2026-05-06 15:48 | 41.66735 | 12.62509 | 16317 ft | 406 kts | 96° |
| 2026-05-06 15:49 | 41.66570 | 12.66309 | 16984 ft | 411 kts | 96° |
| 2026-05-06 15:49 | 41.66420 | 12.70155 | 17627 ft | 416 kts | 96° |
| 2026-05-06 15:49 | 41.66275 | 12.74047 | 18285 ft | 420 kts | 96° |
| 2026-05-06 15:49 | 41.66137 | 12.77928 | 18791 ft | 425 kts | 96° |
| 2026-05-06 15:50 | 41.65999 | 12.81914 | 19250 ft | 433 kts | 96° |
| 2026-05-06 15:50 | 41.65854 | 12.85960 | 19747 ft | 438 kts | 96° |
| 2026-05-06 15:50 | 41.65708 | 12.90054 | 20289 ft | 443 kts | 96° |
| 2026-05-06 15:50 | 41.65559 | 12.94199 | 20851 ft | 448 kts | 96° |
| 2026-05-06 15:51 | 41.65408 | 12.98387 | 21410 ft | 454 kts | 96° |
| 2026-05-06 15:51 | 41.65256 | 13.02632 | 21928 ft | 459 kts | 96° |
| 2026-05-06 15:51 | 41.65099 | 13.06883 | 22434 ft | 464 kts | 96° |
| 2026-05-06 15:51 | 41.64937 | 13.11219 | 22962 ft | 470 kts | 96° |
| 2026-05-06 15:52 | 41.64772 | 13.15617 | 23494 ft | 475 kts | 96° |
| 2026-05-06 15:52 | 41.64603 | 13.20049 | 24082 ft | 476 kts | 96° |
| 2026-05-06 15:52 | 41.64368 | 13.24433 | 24570 ft | 478 kts | 101° |
| 2026-05-06 15:52 | 41.63669 | 13.28790 | 25024 ft | 476 kts | 112° |
| 2026-05-06 15:53 | 41.62366 | 13.32836 | 25478 ft | 472 kts | 125° |
| 2026-05-06 15:53 | 41.60640 | 13.36512 | 25903 ft | 472 kts | 130° |
| 2026-05-06 15:53 | 41.58785 | 13.40162 | 26385 ft | 475 kts | 130° |
| 2026-05-06 15:53 | 41.56916 | 13.43823 | 26889 ft | 477 kts | 130° |
| 2026-05-06 15:54 | 41.55058 | 13.47471 | 27367 ft | 480 kts | 130° |
| 2026-05-06 15:54 | 41.53173 | 13.51180 | 27833 ft | 484 kts | 130° |
| 2026-05-06 15:54 | 41.51265 | 13.54934 | 28255 ft | 488 kts | 130° |
| 2026-05-06 15:54 | 41.49369 | 13.58665 | 28731 ft | 490 kts | 130° |
| 2026-05-06 15:55 | 41.47445 | 13.62447 | 29174 ft | 493 kts | 130° |
| 2026-05-06 15:55 | 41.45506 | 13.66257 | 29625 ft | 496 kts | 130° |
| 2026-05-06 15:55 | 41.43584 | 13.70027 | 30070 ft | 499 kts | 130° |
| 2026-05-06 15:55 | 41.41611 | 13.73879 | 30422 ft | 502 kts | 131° |
| 2026-05-06 15:56 | 41.39633 | 13.77731 | 30729 ft | 505 kts | 131° |
| 2026-05-06 15:56 | 41.37663 | 13.81560 | 31047 ft | 508 kts | 131° |
| 2026-05-06 15:56 | 41.35655 | 13.85460 | 31334 ft | 510 kts | 131° |
| 2026-05-06 15:56 | 41.33642 | 13.89364 | 31624 ft | 512 kts | 130° |
| 2026-05-06 15:57 | 41.32293 | 13.91980 | 31836 ft | 514 kts | 130° |
| 2026-05-06 15:57 | 41.30282 | 13.95933 | 32133 ft | 518 kts | 128° |
| 2026-05-06 15:57 | 41.28456 | 14.00094 | 32515 ft | 520 kts | 125° |
| 2026-05-06 15:57 | 41.26715 | 14.04241 | 32932 ft | 520 kts | 125° |
| 2026-05-06 15:58 | 41.24970 | 14.08467 | 33337 ft | 520 kts | 124° |
| 2026-05-06 15:58 | 41.23243 | 14.12685 | 33734 ft | 519 kts | 124° |
| 2026-05-06 15:58 | 41.21518 | 14.16903 | 34103 ft | 519 kts | 124° |
| 2026-05-06 15:58 | 41.19809 | 14.21070 | 34420 ft | 518 kts | 124° |
| 2026-05-06 15:59 | 41.18078 | 14.25279 | 34672 ft | 520 kts | 125° |
| 2026-05-06 15:59 | 41.16333 | 14.29507 | 34867 ft | 521 kts | 125° |
| 2026-05-06 15:59 | 41.14586 | 14.33730 | 35170 ft | 521 kts | 125° |
| 2026-05-06 15:59 | 41.12854 | 14.37912 | 35471 ft | 520 kts | 125° |
| 2026-05-06 16:00 | 41.11104 | 14.42133 | 35755 ft | 520 kts | 125° |
| 2026-05-06 16:00 | 41.09351 | 14.46353 | 36020 ft | 521 kts | 125° |
| 2026-05-06 16:00 | 41.07595 | 14.50571 | 36257 ft | 521 kts | 125° |
| 2026-05-06 16:00 | 41.05862 | 14.54729 | 36492 ft | 521 kts | 124° |
| 2026-05-06 16:01 | 41.04110 | 14.58927 | 36822 ft | 519 kts | 124° |
| 2026-05-06 16:01 | 41.02360 | 14.63118 | 37119 ft | 518 kts | 124° |
| 2026-05-06 16:01 | 41.00633 | 14.67246 | 37300 ft | 519 kts | 124° |
| 2026-05-06 16:01 | 40.98875 | 14.71440 | 37536 ft | 519 kts | 124° |
| 2026-05-06 16:02 | 40.97712 | 14.74213 | 37663 ft | 519 kts | 124° |
| 2026-05-06 16:02 | 40.95378 | 14.79766 | 37952 ft | 519 kts | 124° |
| 2026-05-06 16:02 | 40.93616 | 14.83952 | 38157 ft | 519 kts | 124° |
| 2026-05-06 16:02 | 40.91859 | 14.88121 | 38400 ft | 519 kts | 124° |
| 2026-05-06 16:03 | 40.90093 | 14.92306 | 38599 ft | 519 kts | 124° |
| 2026-05-06 16:03 | 40.88322 | 14.96494 | 38705 ft | 521 kts | 124° |
| 2026-05-06 16:03 | 40.84791 | 15.04831 | 38918 ft | 522 kts | 124° |
| 2026-05-06 16:04 | 40.81230 | 15.13221 | 38999 ft | 522 kts | 124° |
| 2026-05-06 16:04 | 40.77670 | 15.21585 | 38998 ft | 522 kts | 124° |
| 2026-05-06 16:05 | 40.74125 | 15.29888 | 39001 ft | 521 kts | 124° |
| 2026-05-06 16:05 | 40.70568 | 15.38205 | 39005 ft | 523 kts | 124° |
| 2026-05-06 16:06 | 40.66522 | 15.46125 | 38984 ft | 517 kts | 132° |
| 2026-05-06 16:06 | 40.62221 | 15.53670 | 39003 ft | 516 kts | 133° |
| 2026-05-06 16:07 | 40.57883 | 15.61150 | 39003 ft | 516 kts | 133° |
| 2026-05-06 16:07 | 40.53514 | 15.68673 | 39001 ft | 518 kts | 133° |
| 2026-05-06 16:08 | 40.49133 | 15.76217 | 39007 ft | 520 kts | 133° |
| 2026-05-06 16:08 | 40.44755 | 15.83751 | 39003 ft | 520 kts | 132° |
| 2026-05-06 16:09 | 40.40381 | 15.91259 | 39011 ft | 520 kts | 132° |
| 2026-05-06 16:09 | 40.35974 | 15.98807 | 39011 ft | 520 kts | 132° |
| 2026-05-06 16:10 | 40.31578 | 16.06311 | 39014 ft | 523 kts | 132° |